Time;durP1;ratioP1;P1;durP2;ratioP2;P2;SDS_P1;SDS_P2;PMS_P1;PMS_P2;Temp;Humidity;BMP_temperature;BMP_pressure;BME280_temperature;BME280_humidity;BME280_pressure;Samples;Min_cycle;Max_cycle;Signal;HPM_P1;HPM_P2
2022/03/21 00:00:50;;;;;;;51.63;25.50;;;;;;;0.63;38.00;100808.13;4966024;28;20089;-64
2022/03/21 00:03:19;;;;;;;58.70;28.17;;;;;;;0.61;38.18;100804.75;4993516;28;20166;-65
2022/03/21 00:05:46;;;;;;;53.92;26.77;;;;;;;0.60;38.44;100805.78;4994292;28;20031;-64
2022/03/21 00:08:13;;;;;;;42.22;21.02;;;;;;;0.52;38.33;100809.34;4966356;28;20030;-64
2022/03/21 00:10:40;;;;;;;46.10;22.75;;;;;;;0.39;38.68;100806.31;4963937;28;20377;-65
2022/03/21 00:13:06;;;;;;;49.65;23.42;;;;;;;0.36;38.60;100804.81;4966141;28;20029;-65
2022/03/21 00:15:32;;;;;;;54.65;24.33;;;;;;;0.40;38.50;100803.47;4964858;28;20087;-65
2022/03/21 00:18:02;;;;;;;47.13;21.63;;;;;;;0.37;38.81;100809.22;4965505;28;20031;-64
2022/03/21 00:20:29;;;;;;;57.03;26.73;;;;;;;0.36;38.62;100806.66;4964444;28;20035;-64
2022/03/21 00:22:55;;;;;;;46.63;22.95;;;;;;;0.29;38.87;100803.81;4963540;28;20023;-64
2022/03/21 00:25:20;;;;;;;43.90;21.30;;;;;;;0.24;38.79;100798.91;4965498;28;20038;-64
2022/03/21 00:27:46;;;;;;;42.90;21.35;;;;;;;0.19;38.92;100801.31;4966567;28;20031;-64
2022/03/21 00:30:11;;;;;;;43.88;20.58;;;;;;;0.10;38.54;100799.63;4963762;28;20552;-64
2022/03/21 00:32:38;;;;;;;38.15;20.08;;;;;;;0.00;39.26;100799.78;4965844;28;20037;-64
2022/03/21 00:35:06;;;;;;;42.13;20.33;;;;;;;-0.11;38.90;100794.72;4964315;28;20038;-64
2022/03/21 00:37:31;;;;;;;41.92;20.60;;;;;;;-0.21;38.93;100798.44;4964921;28;20703;-64
2022/03/21 00:39:58;;;;;;;48.00;22.13;;;;;;;-0.29;39.01;100798.41;4967809;28;20037;-64
2022/03/21 00:42:24;;;;;;;38.67;19.20;;;;;;;-0.36;39.22;100792.84;4967386;28;20027;-64
2022/03/21 00:44:50;;;;;;;40.10;20.27;;;;;;;-0.41;39.40;100787.13;4970044;28;20026;-64
2022/03/21 00:47:16;;;;;;;42.60;21.13;;;;;;;-0.46;39.25;100789.47;4967157;28;20502;-64
2022/03/21 00:49:43;;;;;;;42.65;20.45;;;;;;;-0.54;39.78;100800.22;4968169;28;20031;-63
2022/03/21 00:52:09;;;;;;;40.58;20.35;;;;;;;-0.63;39.69;100788.59;4968426;28;20025;-64
2022/03/21 00:54:34;;;;;;;39.28;20.35;;;;;;;-0.73;39.99;100791.44;4999890;28;20023;-64
2022/03/21 00:57:00;;;;;;;37.55;18.52;;;;;;;-0.82;40.09;100787.88;4968874;28;20042;-64
2022/03/21 00:59:25;;;;;;;41.95;20.52;;;;;;;-0.87;40.18;100797.44;4966614;28;20494;-64
2022/03/21 01:01:50;;;;;;;44.63;22.00;;;;;;;-0.94;40.48;100791.88;4965141;28;20086;-64
2022/03/21 01:04:16;;;;;;;44.45;23.00;;;;;;;-0.96;40.60;100792.03;4966884;28;20034;-64
2022/03/21 01:06:41;;;;;;;44.13;22.38;;;;;;;-0.98;40.71;100794.03;4968754;28;20023;-64
2022/03/21 01:09:08;;;;;;;47.13;23.02;;;;;;;-0.98;40.71;100806.69;4967661;28;20046;-64
2022/03/21 01:11:34;;;;;;;42.22;21.90;;;;;;;-0.98;40.76;100790.50;4968879;28;20110;-64
2022/03/21 01:13:59;;;;;;;47.97;23.08;;;;;;;-0.99;40.92;100788.81;4965222;28;20513;-64
2022/03/21 01:16:25;;;;;;;49.83;23.30;;;;;;;-0.98;40.68;100787.81;4969774;28;20018;-64
2022/03/21 01:18:50;;;;;;;55.95;25.67;;;;;;;-0.99;41.04;100797.75;4967914;28;20038;-64
2022/03/21 01:21:16;;;;;;;50.40;24.30;;;;;;;-0.96;41.20;100783.13;4993596;28;20115;-64
2022/03/21 01:23:41;;;;;;;53.20;24.77;;;;;;;-0.92;40.97;100789.88;4967040;28;20039;-64
2022/03/21 01:26:06;;;;;;;47.80;21.90;;;;;;;-0.90;40.86;100788.69;4970159;28;20019;-64
2022/03/21 01:28:32;;;;;;;46.40;21.65;;;;;;;-0.93;40.66;100794.41;4968877;28;20431;-64
2022/03/21 01:30:57;;;;;;;51.25;22.75;;;;;;;-0.96;40.80;100789.34;4967485;28;20027;-64
2022/03/21 01:33:23;;;;;;;47.97;22.42;;;;;;;-0.97;40.77;100786.81;4967270;28;20463;-64
2022/03/21 01:35:48;;;;;;;52.83;24.38;;;;;;;-0.98;41.10;100785.97;4967848;28;20020;-64
2022/03/21 01:38:14;;;;;;;44.55;21.63;;;;;;;-0.96;41.10;100781.25;4968829;28;20710;-64
2022/03/21 01:40:39;;;;;;;50.28;23.00;;;;;;;-1.01;40.76;100788.97;4964429;28;20032;-64
2022/03/21 01:43:12;;;;;;;52.10;24.52;;;;;;;-1.07;40.76;100784.25;4968721;28;20475;-64
2022/03/21 01:45:39;;;;;;;54.67;25.48;;;;;;;-1.11;41.23;100775.66;4966295;28;20027;-64
2022/03/21 01:48:05;;;;;;;55.65;23.58;;;;;;;-1.12;40.95;100775.81;4968873;28;20023;-64
2022/03/21 01:50:31;;;;;;;54.53;25.38;;;;;;;-1.10;41.29;100780.03;4966820;28;20057;-64
2022/03/21 01:55:43;;;;;;;50.85;24.35;;;;;;;-1.05;40.97;100776.88;4968125;28;20050;-64
2022/03/21 01:55:43;;;;;;;54.42;25.33;;;;;;;-0.97;41.20;100773.34;4965959;28;20051;-65
2022/03/21 01:58:11;;;;;;;56.85;26.88;;;;;;;-0.91;41.26;100772.69;4966279;28;20048;-64
2022/03/21 02:00:37;;;;;;;54.45;25.35;;;;;;;-0.86;41.42;100773.06;4968666;28;20026;-64
2022/03/21 02:03:03;;;;;;;65.13;29.33;;;;;;;-0.82;41.13;100770.88;4964392;28;20134;-64
2022/03/21 02:05:28;;;;;;;68.45;30.33;;;;;;;-0.80;41.25;100772.38;4968439;28;20106;-64
2022/03/21 02:07:54;;;;;;;69.47;30.80;;;;;;;-0.77;41.41;100776.59;4974262;28;20097;-64
2022/03/21 02:10:19;;;;;;;60.20;28.58;;;;;;;-0.79;41.69;100768.66;4974046;28;20054;-64
2022/03/21 02:12:46;;;;;;;61.83;28.00;;;;;;;-0.80;41.17;100766.97;4968804;28;20058;-64
2022/03/21 02:15:12;;;;;;;61.33;28.23;;;;;;;-0.81;41.43;100765.28;4961593;28;20030;-64
2022/03/21 02:17:41;;;;;;;58.58;28.02;;;;;;;-0.80;41.18;100766.97;4968153;28;20530;-64
2022/03/21 02:20:07;;;;;;;55.88;26.17;;;;;;;-0.78;40.96;100766.84;4967666;28;20453;-64
2022/03/21 02:22:44;;;;;;;53.97;24.85;;;;;;;-0.80;41.11;100764.28;4967425;28;20023;-64
2022/03/21 02:25:12;;;;;;;52.70;24.77;;;;;;;-0.79;40.96;100765.97;4963878;28;20061;-64
2022/03/21 02:27:40;;;;;;;45.92;22.98;;;;;;;-0.81;41.14;100761.78;4960367;28;20027;-64
2022/03/21 02:30:06;;;;;;;53.97;25.17;;;;;;;-0.81;41.16;100764.47;4955152;28;20031;-64
2022/03/21 02:32:31;;;;;;;52.28;24.65;;;;;;;-0.83;41.27;100771.88;4955116;28;20027;-64
2022/03/21 02:34:58;;;;;;;56.63;25.63;;;;;;;-0.85;41.33;100765.78;4955080;28;20035;-64
2022/03/21 02:37:25;;;;;;;54.17;25.63;;;;;;;-0.83;41.25;100766.47;4954765;28;20027;-64
2022/03/21 02:39:52;;;;;;;56.88;26.55;;;;;;;-0.87;41.19;100757.03;4954718;28;20019;-64
2022/03/21 02:42:18;;;;;;;56.40;25.50;;;;;;;-0.87;41.06;100765.13;4954529;28;20031;-64
2022/03/21 02:44:44;;;;;;;62.90;26.67;;;;;;;-0.95;41.33;100766.78;4955108;28;20503;-64
2022/03/21 02:47:10;;;;;;;58.88;25.70;;;;;;;-1.03;41.41;100771.31;4954891;28;20027;-64
2022/03/21 02:49:36;;;;;;;61.42;26.80;;;;;;;-1.11;41.08;100772.94;4954713;28;20495;-64
2022/03/21 02:52:04;;;;;;;63.33;27.13;;;;;;;-1.12;41.19;100779.34;4954892;28;20027;-64
2022/03/21 02:54:31;;;;;;;59.92;26.17;;;;;;;-1.08;41.61;100779.88;4954565;28;20419;-64
2022/03/21 02:56:57;;;;;;;57.38;25.90;;;;;;;-1.17;41.12;100778.97;4954544;28;20603;-64
2022/03/21 02:59:23;;;;;;;58.88;25.92;;;;;;;-1.23;41.41;100774.28;4954304;28;20472;-64
2022/03/21 03:01:53;;;;;;;52.38;24.58;;;;;;;-1.30;41.48;100774.06;4982923;28;20029;-64
2022/03/21 03:04:20;;;;;;;56.80;25.55;;;;;;;-1.39;42.03;100773.19;4972761;28;20060;-64
2022/03/21 03:06:45;;;;;;;60.33;27.35;;;;;;;-1.44;42.01;100772.81;4974085;28;20472;-63
2022/03/21 03:09:10;;;;;;;54.67;24.75;;;;;;;-1.44;42.02;100770.13;4973401;28;20039;-64
2022/03/21 03:11:37;;;;;;;59.72;26.33;;;;;;;-1.43;42.27;100776.34;4970262;28;20475;-64
2022/03/21 03:14:03;;;;;;;59.10;27.77;;;;;;;-1.39;41.97;100777.69;4964352;28;20045;-63
2022/03/21 03:16:29;;;;;;;60.95;26.73;;;;;;;-1.32;42.05;100777.91;4968104;28;20038;-64
2022/03/21 03:18:54;;;;;;;53.28;23.02;;;;;;;-1.36;42.03;100780.06;4965602;28;20027;-64
2022/03/21 03:21:24;;;;;;;54.22;23.45;;;;;;;-1.45;42.16;100772.97;4967428;28;20118;-64
2022/03/21 03:23:50;;;;;;;49.22;23.50;;;;;;;-1.52;42.33;100778.13;4966054;28;20035;-64
2022/03/21 03:26:16;;;;;;;55.42;26.13;;;;;;;-1.58;41.95;100776.09;4966672;28;20050;-64
2022/03/21 03:28:42;;;;;;;49.60;24.00;;;;;;;-1.59;42.56;100771.69;4967306;28;20014;-64
2022/03/21 03:31:07;;;;;;;48.83;23.75;;;;;;;-1.60;42.59;100784.34;4965091;28;20058;-64
2022/03/21 03:33:33;;;;;;;53.28;23.88;;;;;;;-1.67;42.58;100776.06;4982094;28;20037;-64
2022/03/21 03:35:58;;;;;;;50.58;24.05;;;;;;;-1.68;42.60;100774.38;4965393;28;20085;-64
2022/03/21 03:38:24;;;;;;;50.67;24.00;;;;;;;-1.69;42.81;100777.19;4967256;28;20082;-64
2022/03/21 03:40:49;;;;;;;47.25;23.13;;;;;;;-1.72;42.87;100777.53;4966470;28;20039;-64
2022/03/21 03:43:15;;;;;;;48.45;22.95;;;;;;;-1.78;42.90;100775.44;4965789;28;20480;-64
2022/03/21 03:45:42;;;;;;;51.88;24.33;;;;;;;-1.85;43.02;100778.81;4969200;28;20031;-64
2022/03/21 03:48:08;;;;;;;59.38;26.63;;;;;;;-1.94;43.14;100771.66;4974211;28;20101;-64
2022/03/21 03:50:33;;;;;;;85.05;36.08;;;;;;;-1.92;43.19;100775.03;4973739;28;20057;-64
2022/03/21 03:52:59;;;;;;;103.60;40.55;;;;;;;-1.87;43.45;100772.72;4962103;28;20444;-64
2022/03/21 03:55:24;;;;;;;76.97;35.22;;;;;;;-1.86;43.69;100771.72;4954385;28;20027;-64
2022/03/21 03:57:50;;;;;;;80.03;34.08;;;;;;;-1.88;43.26;100768.34;4954563;28;20061;-65
2022/03/21 04:00:16;;;;;;;71.57;29.75;;;;;;;-1.86;43.18;100774.41;4954613;28;20176;-64
2022/03/21 04:05:27;;;;;;;57.00;27.48;;;;;;;-1.90;43.41;100764.97;4954275;28;20042;-64
2022/03/21 04:07:53;;;;;;;69.95;28.90;;;;;;;-1.89;43.50;100769.34;4954535;28;20032;-65
2022/03/21 04:10:21;;;;;;;60.42;27.00;;;;;;;-1.84;43.59;100767.03;4954285;28;20062;-65
2022/03/21 04:12:48;;;;;;;58.53;26.48;;;;;;;-1.78;43.55;100775.44;4954517;28;20424;-64
2022/03/21 04:15:14;;;;;;;59.58;27.38;;;;;;;-1.81;43.76;100769.38;4954039;28;20387;-64
2022/03/21 04:17:39;;;;;;;58.50;26.38;;;;;;;-1.73;43.78;100773.13;4954631;28;20110;-64
2022/03/21 04:20:06;;;;;;;57.72;27.85;;;;;;;-1.68;43.79;100776.19;4954344;28;20062;-64
2022/03/21 04:22:34;;;;;;;63.83;29.52;;;;;;;-1.60;43.87;100775.41;4953967;28;20472;-64
2022/03/21 04:25:00;;;;;;;62.88;29.33;;;;;;;-1.56;43.38;100777.63;4986865;28;20030;-64
2022/03/21 04:27:25;;;;;;;62.85;29.45;;;;;;;-1.52;43.83;100773.63;4973562;28;20039;-65
2022/03/21 04:29:50;;;;;;;67.78;29.77;;;;;;;-1.56;43.83;100769.56;4973420;28;20055;-64
2022/03/21 04:32:16;;;;;;;61.70;29.88;;;;;;;-1.60;43.78;100772.69;4973205;28;20034;-64
2022/03/21 04:34:41;;;;;;;73.75;32.33;;;;;;;-1.62;43.64;100778.25;5005038;28;20035;-64
2022/03/21 04:37:07;;;;;;;77.10;33.70;;;;;;;-1.62;43.57;100770.19;4973331;28;20526;-64
2022/03/21 04:39:33;;;;;;;74.32;29.67;;;;;;;-1.59;43.70;100780.63;4973447;28;20027;-64
2022/03/21 04:41:58;;;;;;;73.43;32.35;;;;;;;-1.66;43.60;100782.28;4973232;28;20114;-64
2022/03/21 04:44:24;;;;;;;74.88;33.30;;;;;;;-1.70;43.67;100789.81;4973248;28;20443;-64
2022/03/21 04:46:49;;;;;;;74.13;34.08;;;;;;;-1.73;43.49;100787.44;4973570;28;20042;-64
2022/03/21 04:49:14;;;;;;;70.53;30.80;;;;;;;-1.84;43.56;100782.31;4973677;28;20034;-64
2022/03/21 04:51:40;;;;;;;71.22;32.72;;;;;;;-1.95;43.61;100786.13;4969743;28;20028;-64
2022/03/21 04:54:05;;;;;;;78.35;33.92;;;;;;;-1.97;43.83;100785.44;4953943;28;20023;-64
2022/03/21 04:56:30;;;;;;;83.57;34.95;;;;;;;-1.92;44.13;100788.50;4984775;28;20071;-64
2022/03/21 04:58:56;;;;;;;79.38;34.40;;;;;;;-1.85;44.34;100789.56;4985260;28;20098;-64
2022/03/21 05:01:21;;;;;;;75.10;32.40;;;;;;;-1.80;43.99;100791.78;4953635;28;20472;-63
2022/03/21 05:03:48;;;;;;;73.90;34.15;;;;;;;-1.80;44.47;100799.84;4954184;28;20030;-63
2022/03/21 05:06:17;;;;;;;66.10;30.30;;;;;;;-1.80;44.16;100795.28;4954253;28;20094;-64
2022/03/21 05:08:43;;;;;;;72.35;30.55;;;;;;;-1.88;44.33;100795.25;4954122;28;20460;-63
2022/03/21 05:11:08;;;;;;;69.07;31.42;;;;;;;-1.97;44.48;100793.50;4953635;28;20034;-64
2022/03/21 05:13:34;;;;;;;65.28;30.55;;;;;;;-2.00;44.64;100801.88;4984462;28;20019;-64
2022/03/21 05:15:59;;;;;;;71.78;33.30;;;;;;;-1.96;44.84;100797.88;4953991;28;20054;-63
2022/03/21 05:18:24;;;;;;;65.03;30.05;;;;;;;-1.92;44.92;100799.25;4953967;28;20034;-64
2022/03/21 05:20:50;;;;;;;77.25;33.58;;;;;;;-1.87;44.82;100805.00;4953926;28;20033;-63
2022/03/21 05:31:27;;;;;;;112.25;46.83;;;;;;;-1.78;45.00;100805.03;4983376;28;20104;-64
2022/03/21 05:36:36;;;;;;;92.38;42.88;;;;;;;-1.72;45.20;100804.41;4957324;28;20062;-63
2022/03/21 05:39:03;;;;;;;92.63;45.20;;;;;;;-1.72;44.99;100807.97;4956544;28;20464;-64
2022/03/21 05:41:28;;;;;;;93.35;45.00;;;;;;;-1.68;44.64;100805.81;4956285;28;20078;-64
2022/03/21 05:43:54;;;;;;;86.28;40.80;;;;;;;-1.62;44.99;100805.16;4956185;28;20023;-65
2022/03/21 05:46:21;;;;;;;72.75;36.58;;;;;;;-1.58;45.27;100806.53;4956821;28;20122;-64
2022/03/21 05:48:59;;;;;;;67.30;33.80;;;;;;;-1.59;45.35;100802.16;4957178;28;20035;-64
2022/03/21 05:51:33;;;;;;;75.82;34.00;;;;;;;-1.59;45.51;100815.63;4957811;28;20574;-64
2022/03/21 05:54:05;;;;;;;69.65;33.63;;;;;;;-1.49;45.37;100807.44;4960420;28;20031;-64
2022/03/21 05:56:31;;;;;;;66.70;31.80;;;;;;;-1.37;45.48;100813.38;4956755;28;20055;-64
2022/03/21 05:59:00;;;;;;;64.53;30.17;;;;;;;-1.26;45.47;100814.97;4956792;28;20019;-64
2022/03/21 06:01:25;;;;;;;68.47;31.50;;;;;;;-1.14;45.83;100818.22;4956189;28;20480;-64
2022/03/21 06:03:52;;;;;;;79.28;35.15;;;;;;;-1.03;45.67;100828.72;4956388;28;20588;-64
2022/03/21 06:06:19;;;;;;;57.70;28.23;;;;;;;-0.90;45.27;100815.63;4956653;28;20034;-65
2022/03/21 06:08:44;;;;;;;77.22;36.20;;;;;;;-0.87;45.83;100821.69;4955652;28;20034;-65
2022/03/21 06:11:10;;;;;;;74.10;31.58;;;;;;;-0.79;46.02;100824.44;4956049;28;20043;-64
2022/03/21 06:13:37;;;;;;;79.50;35.30;;;;;;;-0.73;45.89;100831.00;4956308;28;20027;-64
2022/03/21 06:16:06;;;;;;;76.10;35.75;;;;;;;-0.65;45.45;100831.03;4962301;28;20027;-64
2022/03/21 06:18:34;;;;;;;77.32;35.83;;;;;;;-0.55;45.84;100818.25;4969915;28;20023;-64
2022/03/21 06:21:00;;;;;;;73.00;33.00;;;;;;;-0.42;45.64;100825.88;4970056;28;20034;-64
2022/03/21 06:23:27;;;;;;;67.18;33.38;;;;;;;-0.30;45.76;100826.38;4975284;28;20026;-64
2022/03/21 06:25:58;;;;;;;88.28;39.95;;;;;;;-0.20;45.74;100831.63;4975412;28;20029;-64
2022/03/21 06:28:24;;;;;;;84.07;37.75;;;;;;;-0.10;46.16;100836.88;4975546;28;20049;-64
2022/03/21 06:30:51;;;;;;;74.50;35.47;;;;;;;-0.09;46.05;100825.91;4975375;28;20038;-64
2022/03/21 06:33:18;;;;;;;66.20;31.77;;;;;;;-0.03;46.05;100832.50;4975122;28;20388;-63
2022/03/21 06:35:44;;;;;;;68.63;32.03;;;;;;;0.04;46.33;100832.66;4974944;28;20027;-64
2022/03/21 06:38:10;;;;;;;67.15;31.98;;;;;;;0.10;46.25;100835.53;4975129;28;20027;-64
2022/03/21 06:40:37;;;;;;;72.65;33.50;;;;;;;0.16;46.48;100839.41;4975204;28;20034;-64
2022/03/21 06:43:02;;;;;;;69.38;32.30;;;;;;;0.25;46.48;100838.38;5005931;28;20022;-64
2022/03/21 06:45:28;;;;;;;67.88;32.25;;;;;;;0.26;46.53;100842.75;4974730;28;20103;-64
2022/03/21 06:47:53;;;;;;;58.22;27.80;;;;;;;0.32;46.37;100840.41;4974966;28;20027;-64
2022/03/21 06:50:19;;;;;;;60.08;28.63;;;;;;;0.43;46.01;100838.19;4975159;28;20430;-64
2022/03/21 06:52:44;;;;;;;55.85;28.70;;;;;;;0.57;45.69;100841.22;4962824;28;20063;-64
2022/03/21 06:55:12;;;;;;;64.97;31.73;;;;;;;0.67;46.21;100841.88;4955493;28;20023;-64
2022/03/21 06:57:41;;;;;;;67.82;29.35;;;;;;;0.80;45.82;100843.22;4956860;28;20062;-64
2022/03/21 07:00:07;;;;;;;66.40;31.58;;;;;;;0.87;45.58;100849.59;4955592;28;20066;-64
2022/03/21 07:02:33;;;;;;;63.90;29.75;;;;;;;0.94;45.59;100841.66;4955276;28;20415;-64
2022/03/21 07:04:59;;;;;;;67.00;31.10;;;;;;;0.99;45.90;100842.78;4955394;28;20028;-64
2022/03/21 07:07:25;;;;;;;67.55;32.47;;;;;;;1.13;45.13;100841.22;4955405;28;20051;-64
2022/03/21 07:09:51;;;;;;;61.08;28.30;;;;;;;1.25;45.50;100848.94;4958758;28;20364;-64
2022/03/21 07:12:18;;;;;;;71.75;32.72;;;;;;;1.35;45.03;100860.41;4956301;28;20038;-64
2022/03/21 07:14:44;;;;;;;64.22;32.10;;;;;;;1.51;45.18;100855.91;4955602;28;20077;-64
2022/03/21 07:17:09;;;;;;;63.63;31.20;;;;;;;1.69;44.96;100852.94;4955319;28;20114;-64
2022/03/21 07:19:35;;;;;;;60.47;29.33;;;;;;;1.86;44.74;100849.13;4955144;28;20034;-63
2022/03/21 07:22:01;;;;;;;66.05;30.17;;;;;;;2.00;44.63;100855.59;4954760;28;20062;-65
2022/03/21 07:24:27;;;;;;;74.00;31.92;;;;;;;2.12;44.09;100856.00;4954892;28;20543;-65
2022/03/21 07:26:52;;;;;;;78.32;34.45;;;;;;;2.21;44.15;100851.41;4955199;28;20027;-64
2022/03/21 07:29:17;;;;;;;83.40;36.90;;;;;;;2.26;43.51;100851.66;4955096;28;20035;-64
2022/03/21 07:31:43;;;;;;;75.97;34.45;;;;;;;2.32;44.11;100847.41;4954659;28;20039;-64
2022/03/21 07:34:08;;;;;;;63.42;31.17;;;;;;;2.38;43.56;100841.25;4969441;28;20094;-64
2022/03/21 07:36:34;;;;;;;65.25;31.05;;;;;;;2.47;43.42;100847.44;4954828;28;20031;-64
2022/03/21 07:39:00;;;;;;;73.93;31.52;;;;;;;2.58;43.30;100848.84;4961310;28;20043;-64
2022/03/21 07:41:27;;;;;;;67.65;30.23;;;;;;;2.71;43.21;100842.78;4954794;28;20023;-64
2022/03/21 07:43:54;;;;;;;71.13;31.63;;;;;;;2.81;43.21;100851.50;4954228;28;20034;-64
2022/03/21 07:49:04;;;;;;;62.20;31.42;;;;;;;3.14;43.45;100848.41;4954230;28;20091;-64
2022/03/21 07:51:30;;;;;;;64.95;32.95;;;;;;;3.30;42.39;100847.34;4956719;28;20047;-64
2022/03/21 07:53:55;;;;;;;62.80;30.38;;;;;;;3.48;43.05;100844.22;4954520;28;20074;-64
2022/03/21 07:56:20;;;;;;;57.03;27.33;;;;;;;3.64;42.38;100843.19;4954533;28;20103;-64
2022/03/21 07:58:46;;;;;;;55.58;27.23;;;;;;;3.79;42.12;100840.44;4954628;28;20042;-65
2022/03/21 08:01:11;;;;;;;53.60;26.88;;;;;;;3.98;41.33;100838.94;4954621;28;20038;-64
2022/03/21 08:03:37;;;;;;;58.35;31.90;;;;;;;4.14;41.56;100828.84;4954296;28;20453;-64
2022/03/21 08:06:03;;;;;;;51.95;27.85;;;;;;;4.27;41.43;100833.56;4954429;28;20051;-64
2022/03/21 08:08:28;;;;;;;47.13;26.13;;;;;;;4.43;41.48;100829.72;4985546;28;20034;-64
2022/03/21 08:10:54;;;;;;;50.55;26.90;;;;;;;4.59;40.85;100834.84;4954706;28;20027;-64
2022/03/21 08:13:19;;;;;;;45.08;25.75;;;;;;;4.68;39.53;100838.28;4954031;28;20031;-64
2022/03/21 08:15:47;;;;;;;41.33;22.58;;;;;;;4.74;39.85;100839.34;4954006;28;20078;-64
2022/03/21 08:18:13;;;;;;;45.15;23.40;;;;;;;4.80;39.36;100837.69;4954830;28;20464;-64
2022/03/21 08:20:43;;;;;;;43.67;21.80;;;;;;;4.88;38.67;100835.69;4966100;28;20023;-64
2022/03/21 08:23:11;;;;;;;35.78;21.83;;;;;;;5.01;38.54;100828.63;4965714;28;20023;-68
2022/03/21 08:25:42;;;;;;;42.50;22.83;;;;;;;5.09;38.26;100835.78;4969760;28;20093;-64
2022/03/21 08:28:09;;;;;;;41.78;21.08;;;;;;;5.21;38.66;100832.28;4971395;28;20023;-64
2022/03/21 08:30:36;;;;;;;40.13;21.38;;;;;;;5.34;37.88;100828.78;4961786;28;20458;-64
2022/03/21 08:33:07;;;;;;;35.85;20.90;;;;;;;5.46;38.18;100829.03;4954056;28;20063;-64
2022/03/21 08:35:35;;;;;;;38.70;21.52;;;;;;;5.53;37.95;100826.31;4970815;28;20041;-64
2022/03/21 08:38:01;;;;;;;39.15;21.25;;;;;;;5.64;37.36;100827.63;4972149;28;20056;-64
2022/03/21 08:40:27;;;;;;;34.65;18.38;;;;;;;5.70;37.42;100815.06;4961356;28;20027;-64
2022/03/21 08:42:52;;;;;;;32.03;18.55;;;;;;;5.76;37.09;100822.44;4956278;28;20023;-64
2022/03/21 08:45:18;;;;;;;32.58;19.35;;;;;;;5.88;37.25;100818.06;4953420;28;20050;-68
2022/03/21 08:47:44;;;;;;;34.10;19.23;;;;;;;6.05;36.88;100813.09;4957124;28;20454;-64
2022/03/21 08:50:10;;;;;;;30.33;16.95;;;;;;;6.20;36.53;100820.19;4971110;28;20463;-64
2022/03/21 08:52:36;;;;;;;35.67;17.98;;;;;;;6.32;36.90;100815.81;4962725;28;20114;-65
2022/03/21 08:55:05;;;;;;;30.52;18.15;;;;;;;6.46;36.47;100811.19;4952882;28;20114;-63
2022/03/21 08:57:31;;;;;;;32.55;18.38;;;;;;;6.57;36.08;100815.16;4952312;28;20110;-64
2022/03/21 08:59:57;;;;;;;32.75;19.35;;;;;;;6.66;36.07;100807.59;4964854;28;20041;-64
2022/03/21 09:02:23;;;;;;;36.25;18.65;;;;;;;6.83;36.64;100817.00;4964860;28;20027;-64
2022/03/21 09:04:49;;;;;;;36.30;19.20;;;;;;;6.96;35.90;100813.38;4966170;28;20097;-64
2022/03/21 09:07:15;;;;;;;30.70;17.10;;;;;;;7.08;34.79;100813.59;4970739;28;20034;-63
2022/03/21 09:09:41;;;;;;;35.47;20.95;;;;;;;7.15;35.58;100813.56;4966378;28;20027;-63
2022/03/21 09:12:08;;;;;;;33.63;19.35;;;;;;;7.25;34.62;100813.94;4972497;28;20053;-64
2022/03/21 09:14:35;;;;;;;35.58;21.05;;;;;;;7.25;34.21;100811.22;4957961;28;20030;-64
2022/03/21 09:17:01;;;;;;;32.35;18.52;;;;;;;7.31;34.97;100814.97;4955109;28;20559;-64
2022/03/21 09:19:29;;;;;;;30.48;15.82;;;;;;;7.41;35.15;100811.75;4959706;28;20031;-64
2022/03/21 09:21:57;;;;;;;36.10;19.25;;;;;;;7.48;33.86;100809.00;4956945;28;20033;-65
2022/03/21 09:24:23;;;;;;;33.22;19.13;;;;;;;7.48;34.26;100809.00;4959187;28;20043;-64
2022/03/21 09:26:49;;;;;;;44.60;22.23;;;;;;;7.50;34.00;100806.91;4956964;28;20034;-63
2022/03/21 09:29:14;;;;;;;38.30;19.17;;;;;;;7.59;34.53;100806.44;4956945;28;20034;-63
2022/03/21 09:31:40;;;;;;;34.72;20.30;;;;;;;7.72;33.93;100807.41;4958465;28;20142;-65
2022/03/21 09:34:07;;;;;;;32.35;19.08;;;;;;;7.83;34.27;100805.88;4957087;28;20035;-64
2022/03/21 09:36:33;;;;;;;32.92;17.70;;;;;;;7.99;34.48;100799.03;4968469;28;20042;-64
2022/03/21 09:38:58;;;;;;;31.27;18.10;;;;;;;8.05;34.14;100798.97;4971963;28;20031;-65
2022/03/21 09:41:27;;;;;;;28.17;17.10;;;;;;;8.12;33.53;100800.81;4975433;28;20456;-64
2022/03/21 09:43:54;;;;;;;30.10;17.92;;;;;;;8.26;33.41;100796.94;4979268;28;20036;-64
2022/03/21 09:46:20;;;;;;;29.90;17.92;;;;;;;8.32;33.77;100793.31;4962439;28;20063;-64
2022/03/21 09:48:52;;;;;;;23.75;15.05;;;;;;;8.30;32.67;100786.38;4956528;28;20027;-64
2022/03/21 09:51:23;;;;;;;32.10;18.35;;;;;;;8.34;32.74;100788.47;4958586;28;20031;-63
2022/03/21 09:53:48;;;;;;;36.53;19.02;;;;;;;8.49;32.65;100781.81;4969161;28;20038;-65
2022/03/21 10:02:07;;;;;;;27.20;15.85;;;;;;;8.94;32.47;100773.34;5020049;23;20052;-69
2022/03/21 10:04:32;;;;;;;30.63;16.52;;;;;;;9.02;32.08;100769.47;4930334;29;20036;-68
2022/03/21 10:06:59;;;;;;;32.58;16.88;;;;;;;9.08;31.57;100763.06;4935706;29;20115;-67
2022/03/21 10:09:25;;;;;;;29.05;16.20;;;;;;;9.14;31.14;100768.69;4934111;29;20063;-67
2022/03/21 10:11:58;;;;;;;22.52;14.38;;;;;;;9.23;31.60;100773.63;4934299;29;20090;-68
2022/03/21 10:14:29;;;;;;;23.15;12.90;;;;;;;9.30;30.21;100765.34;4943118;29;20123;-66
2022/03/21 10:16:55;;;;;;;22.00;14.10;;;;;;;9.31;30.37;100764.28;4934829;29;20071;-67
2022/03/21 10:19:21;;;;;;;24.67;14.80;;;;;;;9.44;30.97;100760.50;4933113;29;20028;-66
2022/03/21 10:22:23;;;;;;;25.90;16.20;;;;;;;9.57;30.56;100756.75;4933867;29;20032;-66
2022/03/21 10:24:51;;;;;;;27.15;15.10;;;;;;;9.74;31.14;100751.44;4932856;29;20494;-67
2022/03/21 10:27:29;;;;;;;22.25;13.88;;;;;;;9.74;30.05;100745.94;4930960;29;20030;-67
2022/03/21 10:30:00;;;;;;;23.38;13.77;;;;;;;9.70;29.88;100747.47;4931905;29;20435;-66
2022/03/21 10:32:42;;;;;;;23.13;14.07;;;;;;;9.83;30.57;100747.28;4932502;29;20158;-66
2022/03/21 10:35:15;;;;;;;23.48;13.80;;;;;;;9.91;30.98;100746.09;4942903;29;20512;-67
2022/03/21 10:37:46;;;;;;;24.75;15.20;;;;;;;9.97;29.45;100744.34;4926654;29;20091;-67
2022/03/21 10:40:31;;;;;;;26.55;15.93;;;;;;;10.04;31.25;100742.31;4935738;29;20035;-68
2022/03/21 10:43:00;;;;;;;21.65;14.18;;;;;;;10.12;29.79;100738.41;4935611;29;20398;-68
2022/03/21 10:45:34;;;;;;;27.88;17.25;;;;;;;10.15;30.31;100732.44;4932627;29;20059;-67
2022/03/21 10:48:00;;;;;;;27.42;15.10;;;;;;;10.23;29.83;100733.97;4932307;29;20122;-67
2022/03/21 10:50:31;;;;;;;27.30;17.55;;;;;;;10.35;30.08;100728.50;4936547;29;20064;-66
2022/03/21 10:53:04;;;;;;;28.80;16.83;;;;;;;10.46;29.88;100721.34;4931581;29;20040;-68
2022/03/21 10:55:30;;;;;;;23.55;15.30;;;;;;;10.49;29.60;100723.63;4933632;29;20055;-67
2022/03/21 10:57:55;;;;;;;27.38;16.52;;;;;;;10.51;29.81;100719.59;4935834;29;20415;-67
2022/03/21 11:00:31;;;;;;;26.30;15.82;;;;;;;10.51;29.63;100718.72;4941529;29;20498;-67
2022/03/21 11:03:18;;;;;;;28.38;17.95;;;;;;;10.54;29.56;100716.38;4931493;29;20043;-68
2022/03/21 11:05:46;;;;;;;27.15;16.08;;;;;;;10.65;29.39;100711.94;4930291;29;20034;-67
2022/03/21 11:08:15;;;;;;;27.90;16.00;;;;;;;10.80;29.92;100710.59;4934525;29;20032;-68
2022/03/21 11:10:41;;;;;;;23.27;14.20;;;;;;;10.89;29.22;100711.03;4935393;29;20074;-66
2022/03/21 11:13:08;;;;;;;23.73;14.55;;;;;;;11.00;29.29;100705.50;4937254;29;20035;-67
2022/03/21 11:15:36;;;;;;;26.48;15.73;;;;;;;11.19;28.66;100708.09;4931173;29;21244;-65
2022/03/21 11:18:06;;;;;;;23.00;13.57;;;;;;;11.30;28.93;100698.13;4930129;29;20035;-65
2022/03/21 11:20:32;;;;;;;25.08;14.68;;;;;;;11.37;28.38;100698.81;4932565;28;20032;-66
2022/03/21 11:23:00;;;;;;;29.05;14.55;;;;;;;11.36;28.30;100694.38;4932438;29;20031;-65
2022/03/21 11:25:30;;;;;;;23.58;14.60;;;;;;;11.35;28.94;100700.97;4929556;29;20111;-65
2022/03/21 11:28:32;;;;;;;21.35;14.25;;;;;;;11.41;27.99;100693.63;4931734;29;20496;-65
2022/03/21 11:31:22;;;;;;;26.55;15.15;;;;;;;11.47;28.02;100682.47;4948076;28;20036;-66
2022/03/21 11:33:50;;;;;;;21.67;13.95;;;;;;;11.60;27.93;100683.25;4935381;29;20039;-66